sensor_id;sensor_type;location;lat;lon;timestamp;P1;P2;P0
29460;PMS7003;16428;47.836;35.106;2023-06-24T00:00:13;13.00;12.00;10.20
29460;PMS7003;16428;47.836;35.106;2023-06-24T00:02:42;15.00;11.00;9.00
29460;PMS7003;16428;47.836;35.106;2023-06-24T00:05:12;12.00;12.00;9.80
29460;PMS7003;16428;47.836;35.106;2023-06-24T00:07:39;16.00;14.80;12.40
29460;PMS7003;16428;47.836;35.106;2023-06-24T00:10:13;11.40;11.40;9.20
29460;PMS7003;16428;47.836;35.106;2023-06-24T00:12:44;11.80;11.80;10.60
29460;PMS7003;16428;47.836;35.106;2023-06-24T00:15:11;12.00;12.00;9.00
29460;PMS7003;16428;47.836;35.106;2023-06-24T00:17:39;17.20;17.20;13.60
29460;PMS7003;16428;47.836;35.106;2023-06-24T00:20:07;15.60;14.00;12.00
29460;PMS7003;16428;47.836;35.106;2023-06-24T00:22:38;14.00;14.00;11.60
29460;PMS7003;16428;47.836;35.106;2023-06-24T00:25:11;16.60;16.60;11.20
29460;PMS7003;16428;47.836;35.106;2023-06-24T00:27:38;18.40;16.40;14.40
29460;PMS7003;16428;47.836;35.106;2023-06-24T00:30:06;18.40;16.40;12.40
29460;PMS7003;16428;47.836;35.106;2023-06-24T00:32:34;15.20;15.20;11.80
29460;PMS7003;16428;47.836;35.106;2023-06-24T00:35:01;10.00;10.00;8.60
29460;PMS7003;16428;47.836;35.106;2023-06-24T00:37:28;15.80;14.80;12.60
29460;PMS7003;16428;47.836;35.106;2023-06-24T00:39:55;16.40;16.40;14.00
29460;PMS7003;16428;47.836;35.106;2023-06-24T00:42:22;16.60;15.40;11.60
29460;PMS7003;16428;47.836;35.106;2023-06-24T00:44:50;17.00;16.80;13.60
29460;PMS7003;16428;47.836;35.106;2023-06-24T00:47:17;21.40;19.60;14.80
29460;PMS7003;16428;47.836;35.106;2023-06-24T00:49:45;16.20;14.60;10.80
29460;PMS7003;16428;47.836;35.106;2023-06-24T00:52:12;18.40;16.00;13.40
29460;PMS7003;16428;47.836;35.106;2023-06-24T00:54:43;19.40;17.20;13.60
29460;PMS7003;16428;47.836;35.106;2023-06-24T00:57:10;19.20;19.20;14.20
29460;PMS7003;16428;47.836;35.106;2023-06-24T00:59:39;17.60;17.60;13.80
29460;PMS7003;16428;47.836;35.106;2023-06-24T01:02:09;13.00;13.00;11.60
29460;PMS7003;16428;47.836;35.106;2023-06-24T01:04:37;20.60;20.60;16.20
29460;PMS7003;16428;47.836;35.106;2023-06-24T01:07:05;21.20;18.60;15.20
29460;PMS7003;16428;47.836;35.106;2023-06-24T01:09:33;20.60;18.40;13.00
29460;PMS7003;16428;47.836;35.106;2023-06-24T01:12:00;19.00;18.40;14.40
29460;PMS7003;16428;47.836;35.106;2023-06-24T01:14:28;19.60;18.00;14.80
29460;PMS7003;16428;47.836;35.106;2023-06-24T01:19:32;14.20;14.20;11.60
29460;PMS7003;16428;47.836;35.106;2023-06-24T01:33:38;22.20;20.20;17.20
29460;PMS7003;16428;47.836;35.106;2023-06-24T01:36:14;21.20;19.40;17.00
29460;PMS7003;16428;47.836;35.106;2023-06-24T01:38:50;25.80;20.40;17.20
29460;PMS7003;16428;47.836;35.106;2023-06-24T01:41:21;20.00;18.60;15.40
29460;PMS7003;16428;47.836;35.106;2023-06-24T01:43:52;20.00;20.00;15.50
29460;PMS7003;16428;47.836;35.106;2023-06-24T01:46:22;19.40;19.40;15.40
29460;PMS7003;16428;47.836;35.106;2023-06-24T01:48:54;24.60;23.40;18.20
29460;PMS7003;16428;47.836;35.106;2023-06-24T01:51:24;24.40;21.60;18.60
29460;PMS7003;16428;47.836;35.106;2023-06-24T01:54:02;23.00;23.00;19.00
29460;PMS7003;16428;47.836;35.106;2023-06-24T01:56:33;22.60;19.60;16.00
29460;PMS7003;16428;47.836;35.106;2023-06-24T01:59:03;26.50;24.50;18.25
29460;PMS7003;16428;47.836;35.106;2023-06-24T02:01:31;23.00;20.80;15.60
29460;PMS7003;16428;47.836;35.106;2023-06-24T02:04:00;22.20;20.80;16.40
29460;PMS7003;16428;47.836;35.106;2023-06-24T02:06:31;22.60;19.20;15.20
29460;PMS7003;16428;47.836;35.106;2023-06-24T02:09:00;21.80;20.80;17.40
29460;PMS7003;16428;47.836;35.106;2023-06-24T02:11:28;24.00;22.60;17.40
29460;PMS7003;16428;47.836;35.106;2023-06-24T02:13:59;23.40;22.60;16.60
29460;PMS7003;16428;47.836;35.106;2023-06-24T02:16:29;19.60;18.20;13.00
29460;PMS7003;16428;47.836;35.106;2023-06-24T02:18:57;23.75;22.50;19.00
29460;PMS7003;16428;47.836;35.106;2023-06-24T02:21:26;25.20;20.80;16.60
29460;PMS7003;16428;47.836;35.106;2023-06-24T02:23:53;27.50;27.50;19.00
29460;PMS7003;16428;47.836;35.106;2023-06-24T02:26:21;27.00;26.00;20.50
29460;PMS7003;16428;47.836;35.106;2023-06-24T02:28:50;23.75;22.25;16.50
29460;PMS7003;16428;47.836;35.106;2023-06-24T02:31:18;25.50;25.00;18.75
29460;PMS7003;16428;47.836;35.106;2023-06-24T02:33:45;27.00;27.00;19.75
29460;PMS7003;16428;47.836;35.106;2023-06-24T02:36:12;31.00;29.25;20.00
29460;PMS7003;16428;47.836;35.106;2023-06-24T02:38:39;24.50;23.00;18.00
29460;PMS7003;16428;47.836;35.106;2023-06-24T02:41:07;26.50;26.50;19.00
29460;PMS7003;16428;47.836;35.106;2023-06-24T02:43:34;26.50;26.50;19.50
29460;PMS7003;16428;47.836;35.106;2023-06-24T02:46:02;22.50;20.50;16.25
29460;PMS7003;16428;47.836;35.106;2023-06-24T02:48:32;22.75;22.75;19.00
29460;PMS7003;16428;47.836;35.106;2023-06-24T02:51:03;24.60;22.80;17.60
29460;PMS7003;16428;47.836;35.106;2023-06-24T02:53:33;14.75;12.00;7.50
29460;PMS7003;16428;47.836;35.106;2023-06-24T02:56:01;21.25;20.50;15.50
29460;PMS7003;16428;47.836;35.106;2023-06-24T02:58:31;22.80;20.40;17.40
29460;PMS7003;16428;47.836;35.106;2023-06-24T03:00:59;25.00;25.00;19.25
29460;PMS7003;16428;47.836;35.106;2023-06-24T03:03:30;22.80;20.00;16.60
29460;PMS7003;16428;47.836;35.106;2023-06-24T03:05:59;20.75;20.00;16.50
29460;PMS7003;16428;47.836;35.106;2023-06-24T03:08:29;21.20;21.20;16.20
29460;PMS7003;16428;47.836;35.106;2023-06-24T03:10:57;26.80;23.60;19.00
29460;PMS7003;16428;47.836;35.106;2023-06-24T03:13:25;25.40;25.40;19.00
29460;PMS7003;16428;47.836;35.106;2023-06-24T03:15:52;26.25;23.50;19.00
29460;PMS7003;16428;47.836;35.106;2023-06-24T03:18:19;25.80;25.80;18.00
29460;PMS7003;16428;47.836;35.106;2023-06-24T03:20:47;22.40;21.60;16.00
29460;PMS7003;16428;47.836;35.106;2023-06-24T03:23:14;24.40;24.40;19.20
29460;PMS7003;16428;47.836;35.106;2023-06-24T03:25:41;27.00;24.60;18.80
29460;PMS7003;16428;47.836;35.106;2023-06-24T03:28:08;22.00;19.80;16.80
29460;PMS7003;16428;47.836;35.106;2023-06-24T03:30:35;21.40;21.40;17.40
29460;PMS7003;16428;47.836;35.106;2023-06-24T03:33:03;20.20;19.00;14.20
29460;PMS7003;16428;47.836;35.106;2023-06-24T03:35:30;22.00;22.00;18.00
29460;PMS7003;16428;47.836;35.106;2023-06-24T03:38:00;24.00;21.80;17.40
29460;PMS7003;16428;47.836;35.106;2023-06-24T03:40:27;22.60;22.60;18.40
29460;PMS7003;16428;47.836;35.106;2023-06-24T03:42:54;22.20;22.20;17.40
29460;PMS7003;16428;47.836;35.106;2023-06-24T03:45:21;22.80;22.80;19.00
29460;PMS7003;16428;47.836;35.106;2023-06-24T03:47:48;21.00;21.00;18.20
29460;PMS7003;16428;47.836;35.106;2023-06-24T03:50:15;22.80;20.60;15.40
29460;PMS7003;16428;47.836;35.106;2023-06-24T03:52:43;21.20;19.40;15.00
29460;PMS7003;16428;47.836;35.106;2023-06-24T03:55:11;18.80;18.80;14.20
29460;PMS7003;16428;47.836;35.106;2023-06-24T03:57:38;13.80;13.20;10.60
29460;PMS7003;16428;47.836;35.106;2023-06-24T04:00:06;12.80;12.20;10.00
29460;PMS7003;16428;47.836;35.106;2023-06-24T04:02:42;10.80;10.80;9.20
29460;PMS7003;16428;47.836;35.106;2023-06-24T04:05:09;16.40;12.40;9.80
29460;PMS7003;16428;47.836;35.106;2023-06-24T04:07:37;18.40;13.00;11.00
29460;PMS7003;16428;47.836;35.106;2023-06-24T04:10:06;13.60;13.60;11.00
29460;PMS7003;16428;47.836;35.106;2023-06-24T04:12:37;13.80;13.00;11.00
29460;PMS7003;16428;47.836;35.106;2023-06-24T04:15:04;17.20;14.60;12.00
29460;PMS7003;16428;47.836;35.106;2023-06-24T04:17:32;14.20;12.60;9.40
29460;PMS7003;16428;47.836;35.106;2023-06-24T04:19:59;12.00;12.00;11.00
29460;PMS7003;16428;47.836;35.106;2023-06-24T04:22:26;18.00;16.00;12.20
29460;PMS7003;16428;47.836;35.106;2023-06-24T04:24:54;17.80;15.40;12.40
29460;PMS7003;16428;47.836;35.106;2023-06-24T04:27:21;13.60;11.00;10.20
29460;PMS7003;16428;47.836;35.106;2023-06-24T04:29:48;16.40;16.00;12.40
29460;PMS7003;16428;47.836;35.106;2023-06-24T04:32:15;18.20;18.20;15.60
29460;PMS7003;16428;47.836;35.106;2023-06-24T04:34:42;14.00;13.40;9.60
29460;PMS7003;16428;47.836;35.106;2023-06-24T04:37:09;15.00;15.00;12.40
29460;PMS7003;16428;47.836;35.106;2023-06-24T04:39:39;15.00;15.00;11.20
29460;PMS7003;16428;47.836;35.106;2023-06-24T04:42:07;17.00;15.20;12.80
29460;PMS7003;16428;47.836;35.106;2023-06-24T04:44:34;20.40;17.60;15.00
29460;PMS7003;16428;47.836;35.106;2023-06-24T04:47:02;15.60;15.60;14.00
29460;PMS7003;16428;47.836;35.106;2023-06-24T04:49:29;19.60;14.80;13.00
29460;PMS7003;16428;47.836;35.106;2023-06-24T04:51:59;18.00;17.20;13.60
29460;PMS7003;16428;47.836;35.106;2023-06-24T04:54:27;14.60;14.60;10.60
29460;PMS7003;16428;47.836;35.106;2023-06-24T04:56:55;19.20;18.00;14.80
29460;PMS7003;16428;47.836;35.106;2023-06-24T04:59:23;16.20;16.20;13.20
29460;PMS7003;16428;47.836;35.106;2023-06-24T05:01:50;12.00;12.00;9.00
29460;PMS7003;16428;47.836;35.106;2023-06-24T05:04:17;15.80;15.80;13.80
29460;PMS7003;16428;47.836;35.106;2023-06-24T05:06:45;16.80;16.20;13.00
29460;PMS7003;16428;47.836;35.106;2023-06-24T05:09:12;15.80;15.80;13.00
29460;PMS7003;16428;47.836;35.106;2023-06-24T05:11:41;16.80;16.80;13.80
29460;PMS7003;16428;47.836;35.106;2023-06-24T05:14:09;15.00;15.00;12.60
29460;PMS7003;16428;47.836;35.106;2023-06-24T05:16:36;17.80;17.80;14.60
29460;PMS7003;16428;47.836;35.106;2023-06-24T05:19:03;18.60;18.60;13.80
29460;PMS7003;16428;47.836;35.106;2023-06-24T05:21:31;15.80;15.80;13.60
29460;PMS7003;16428;47.836;35.106;2023-06-24T05:23:58;16.20;15.40;12.60
29460;PMS7003;16428;47.836;35.106;2023-06-24T05:26:25;15.80;15.80;12.40
29460;PMS7003;16428;47.836;35.106;2023-06-24T05:28:52;14.20;14.20;11.00
29460;PMS7003;16428;47.836;35.106;2023-06-24T05:31:19;16.00;16.00;13.60
29460;PMS7003;16428;47.836;35.106;2023-06-24T05:33:47;17.40;17.40;13.20
29460;PMS7003;16428;47.836;35.106;2023-06-24T05:36:14;10.60;10.60;7.00
29460;PMS7003;16428;47.836;35.106;2023-06-24T05:38:41;11.40;11.40;9.00
29460;PMS7003;16428;47.836;35.106;2023-06-24T05:41:08;13.80;12.40;10.80
29460;PMS7003;16428;47.836;35.106;2023-06-24T05:43:35;16.40;16.40;13.80
29460;PMS7003;16428;47.836;35.106;2023-06-24T05:46:03;13.60;13.60;11.40
29460;PMS7003;16428;47.836;35.106;2023-06-24T05:48:31;18.80;18.00;15.20
29460;PMS7003;16428;47.836;35.106;2023-06-24T05:50:58;15.60;15.60;13.20
29460;PMS7003;16428;47.836;35.106;2023-06-24T05:53:25;15.60;15.60;13.20
29460;PMS7003;16428;47.836;35.106;2023-06-24T05:55:53;16.60;14.60;9.80
29460;PMS7003;16428;47.836;35.106;2023-06-24T05:58:20;11.60;11.60;10.20
29460;PMS7003;16428;47.836;35.106;2023-06-24T06:00:47;18.40;18.40;14.20
29460;PMS7003;16428;47.836;35.106;2023-06-24T06:03:14;9.00;9.00;7.60
29460;PMS7003;16428;47.836;35.106;2023-06-24T06:05:41;15.60;15.60;13.00
29460;PMS7003;16428;47.836;35.106;2023-06-24T06:08:08;17.00;15.00;12.00
29460;PMS7003;16428;47.836;35.106;2023-06-24T06:10:36;15.00;15.00;11.00
29460;PMS7003;16428;47.836;35.106;2023-06-24T06:13:03;20.00;16.00;12.20
29460;PMS7003;16428;47.836;35.106;2023-06-24T06:15:31;14.40;14.40;12.00
29460;PMS7003;16428;47.836;35.106;2023-06-24T06:17:59;16.80;13.80;12.00
29460;PMS7003;16428;47.836;35.106;2023-06-24T06:20:26;19.00;16.60;14.00
29460;PMS7003;16428;47.836;35.106;2023-06-24T06:22:53;12.20;12.20;11.00
29460;PMS7003;16428;47.836;35.106;2023-06-24T06:25:20;16.80;16.80;12.40
29460;PMS7003;16428;47.836;35.106;2023-06-24T06:27:47;16.00;12.40;10.40
29460;PMS7003;16428;47.836;35.106;2023-06-24T06:30:14;17.60;16.00;12.40
29460;PMS7003;16428;47.836;35.106;2023-06-24T06:32:42;13.20;13.20;12.20
29460;PMS7003;16428;47.836;35.106;2023-06-24T06:35:09;12.60;12.60;10.20
29460;PMS7003;16428;47.836;35.106;2023-06-24T06:37:37;19.20;18.00;14.20
29460;PMS7003;16428;47.836;35.106;2023-06-24T06:40:04;18.40;16.20;13.00
29460;PMS7003;16428;47.836;35.106;2023-06-24T06:42:32;15.80;15.80;13.80
29460;PMS7003;16428;47.836;35.106;2023-06-24T06:44:59;18.60;17.60;13.80
29460;PMS7003;16428;47.836;35.106;2023-06-24T06:47:26;18.40;15.20;13.20
29460;PMS7003;16428;47.836;35.106;2023-06-24T06:49:53;15.00;15.00;11.60
29460;PMS7003;16428;47.836;35.106;2023-06-24T06:52:21;11.40;11.40;9.20
29460;PMS7003;16428;47.836;35.106;2023-06-24T06:54:48;16.80;16.80;13.60
29460;PMS7003;16428;47.836;35.106;2023-06-24T06:57:15;15.40;15.40;11.80
29460;PMS7003;16428;47.836;35.106;2023-06-24T06:59:42;14.20;14.20;11.40
29460;PMS7003;16428;47.836;35.106;2023-06-24T07:02:09;9.40;9.40;7.00
29460;PMS7003;16428;47.836;35.106;2023-06-24T07:04:36;13.80;13.80;12.00
29460;PMS7003;16428;47.836;35.106;2023-06-24T07:07:03;15.00;15.00;12.20
29460;PMS7003;16428;47.836;35.106;2023-06-24T07:09:31;17.80;17.60;13.80
29460;PMS7003;16428;47.836;35.106;2023-06-24T07:11:58;15.20;15.20;11.60
29460;PMS7003;16428;47.836;35.106;2023-06-24T07:14:25;15.00;15.00;12.80
29460;PMS7003;16428;47.836;35.106;2023-06-24T07:16:52;12.60;12.60;10.20
29460;PMS7003;16428;47.836;35.106;2023-06-24T07:19:19;16.40;15.80;12.80
29460;PMS7003;16428;47.836;35.106;2023-06-24T07:21:46;13.80;13.80;11.00
29460;PMS7003;16428;47.836;35.106;2023-06-24T07:24:13;12.20;12.20;11.00
29460;PMS7003;16428;47.836;35.106;2023-06-24T07:26:40;20.20;18.00;13.00
29460;PMS7003;16428;47.836;35.106;2023-06-24T07:29:07;17.20;13.80;9.80
29460;PMS7003;16428;47.836;35.106;2023-06-24T07:31:36;16.60;16.60;12.60
29460;PMS7003;16428;47.836;35.106;2023-06-24T07:34:04;12.80;12.80;11.60
29460;PMS7003;16428;47.836;35.106;2023-06-24T07:36:32;15.20;12.80;9.80
29460;PMS7003;16428;47.836;35.106;2023-06-24T07:38:59;14.20;14.20;10.40
29460;PMS7003;16428;47.836;35.106;2023-06-24T07:41:27;18.00;15.80;13.80
29460;PMS7003;16428;47.836;35.106;2023-06-24T07:43:54;14.60;12.80;10.60
29460;PMS7003;16428;47.836;35.106;2023-06-24T07:46:22;13.80;13.80;11.60
29460;PMS7003;16428;47.836;35.106;2023-06-24T07:48:49;16.40;16.20;12.60
29460;PMS7003;16428;47.836;35.106;2023-06-24T07:51:16;14.00;12.20;11.00
29460;PMS7003;16428;47.836;35.106;2023-06-24T07:53:43;15.00;15.00;11.80
29460;PMS7003;16428;47.836;35.106;2023-06-24T07:56:10;13.80;11.80;9.80
29460;PMS7003;16428;47.836;35.106;2023-06-24T07:58:38;17.00;14.80;13.00
29460;PMS7003;16428;47.836;35.106;2023-06-24T08:01:05;12.00;11.60;10.00
29460;PMS7003;16428;47.836;35.106;2023-06-24T08:03:33;13.20;13.00;10.20
29460;PMS7003;16428;47.836;35.106;2023-06-24T08:06:01;16.00;16.00;11.20
29460;PMS7003;16428;47.836;35.106;2023-06-24T08:08:29;14.80;14.80;11.00
29460;PMS7003;16428;47.836;35.106;2023-06-24T08:10:56;15.40;14.60;12.00
29460;PMS7003;16428;47.836;35.106;2023-06-24T08:13:23;16.80;16.80;14.80
29460;PMS7003;16428;47.836;35.106;2023-06-24T08:15:51;12.00;12.00;11.40
29460;PMS7003;16428;47.836;35.106;2023-06-24T08:18:18;18.20;13.80;12.00
29460;PMS7003;16428;47.836;35.106;2023-06-24T08:20:45;12.00;12.00;10.80
29460;PMS7003;16428;47.836;35.106;2023-06-24T08:23:12;16.00;16.00;13.40
29460;PMS7003;16428;47.836;35.106;2023-06-24T08:25:40;14.60;14.00;11.80
29460;PMS7003;16428;47.836;35.106;2023-06-24T08:28:07;12.20;12.20;9.20
29460;PMS7003;16428;47.836;35.106;2023-06-24T08:30:35;12.80;12.80;11.40
29460;PMS7003;16428;47.836;35.106;2023-06-24T08:33:02;15.60;15.60;12.40
29460;PMS7003;16428;47.836;35.106;2023-06-24T08:35:29;15.80;15.40;13.40
29460;PMS7003;16428;47.836;35.106;2023-06-24T08:37:56;14.40;14.40;10.20
29460;PMS7003;16428;47.836;35.106;2023-06-24T08:40:24;15.40;13.80;11.20
29460;PMS7003;16428;47.836;35.106;2023-06-24T08:42:51;16.40;13.60;10.80
29460;PMS7003;16428;47.836;35.106;2023-06-24T08:45:18;11.80;11.80;10.00
29460;PMS7003;16428;47.836;35.106;2023-06-24T08:47:46;11.40;11.40;8.80
29460;PMS7003;16428;47.836;35.106;2023-06-24T08:50:16;13.20;11.60;10.40
29460;PMS7003;16428;47.836;35.106;2023-06-24T08:52:45;13.60;12.80;11.60
29460;PMS7003;16428;47.836;35.106;2023-06-24T08:55:22;16.40;14.00;12.80
29460;PMS7003;16428;47.836;35.106;2023-06-24T08:57:50;13.00;13.00;10.80
29460;PMS7003;16428;47.836;35.106;2023-06-24T09:00:18;13.20;13.20;10.80
29460;PMS7003;16428;47.836;35.106;2023-06-24T09:02:45;14.20;14.20;11.00
29460;PMS7003;16428;47.836;35.106;2023-06-24T09:05:13;14.00;14.00;12.40
29460;PMS7003;16428;47.836;35.106;2023-06-24T09:07:40;15.20;15.20;12.20
29460;PMS7003;16428;47.836;35.106;2023-06-24T09:10:07;13.40;13.40;12.40
29460;PMS7003;16428;47.836;35.106;2023-06-24T09:12:35;12.20;12.20;10.40
29460;PMS7003;16428;47.836;35.106;2023-06-24T09:15:02;13.80;12.40;10.20
29460;PMS7003;16428;47.836;35.106;2023-06-24T09:17:30;12.20;9.60;8.20
29460;PMS7003;16428;47.836;35.106;2023-06-24T09:20:04;13.20;10.40;8.20
29460;PMS7003;16428;47.836;35.106;2023-06-24T09:22:32;9.80;9.80;7.20
29460;PMS7003;16428;47.836;35.106;2023-06-24T09:25:00;14.40;14.40;10.80
29460;PMS7003;16428;47.836;35.106;2023-06-24T09:27:30;7.60;7.60;5.80
29460;PMS7003;16428;47.836;35.106;2023-06-24T09:29:58;15.00;14.20;11.80
29460;PMS7003;16428;47.836;35.106;2023-06-24T09:32:34;14.00;14.00;10.80
29460;PMS7003;16428;47.836;35.106;2023-06-24T09:35:02;13.60;13.20;11.00
29460;PMS7003;16428;47.836;35.106;2023-06-24T09:37:30;13.60;13.60;11.80
29460;PMS7003;16428;47.836;35.106;2023-06-24T09:40:00;13.20;13.20;11.40
29460;PMS7003;16428;47.836;35.106;2023-06-24T09:42:31;13.20;13.20;10.60
29460;PMS7003;16428;47.836;35.106;2023-06-24T09:44:58;17.40;14.00;11.80
29460;PMS7003;16428;47.836;35.106;2023-06-24T09:47:31;16.00;16.00;13.20
29460;PMS7003;16428;47.836;35.106;2023-06-24T09:49:59;15.60;15.60;13.60
29460;PMS7003;16428;47.836;35.106;2023-06-24T09:52:29;15.80;15.80;12.40
29460;PMS7003;16428;47.836;35.106;2023-06-24T09:55:00;15.20;15.20;11.80
29460;PMS7003;16428;47.836;35.106;2023-06-24T09:57:32;18.60;14.00;10.80
29460;PMS7003;16428;47.836;35.106;2023-06-24T10:00:02;15.40;15.40;12.00
29460;PMS7003;16428;47.836;35.106;2023-06-24T10:02:30;13.40;13.40;12.60
29460;PMS7003;16428;47.836;35.106;2023-06-24T10:04:59;14.40;14.40;13.00
29460;PMS7003;16428;47.836;35.106;2023-06-24T10:07:28;14.00;14.00;11.00
29460;PMS7003;16428;47.836;35.106;2023-06-24T10:09:55;15.40;13.60;10.60
29460;PMS7003;16428;47.836;35.106;2023-06-24T10:12:23;17.20;15.00;13.00
29460;PMS7003;16428;47.836;35.106;2023-06-24T10:14:53;12.80;12.80;10.00
29460;PMS7003;16428;47.836;35.106;2023-06-24T10:17:20;19.60;19.60;14.80
29460;PMS7003;16428;47.836;35.106;2023-06-24T10:19:47;14.80;14.80;11.40
29460;PMS7003;16428;47.836;35.106;2023-06-24T10:22:14;15.60;15.60;12.40
29460;PMS7003;16428;47.836;35.106;2023-06-24T10:24:42;14.20;14.00;12.20
29460;PMS7003;16428;47.836;35.106;2023-06-24T10:27:19;17.60;15.60;11.80
29460;PMS7003;16428;47.836;35.106;2023-06-24T10:29:49;14.60;13.60;11.20
29460;PMS7003;16428;47.836;35.106;2023-06-24T10:32:21;13.80;13.80;11.00
29460;PMS7003;16428;47.836;35.106;2023-06-24T10:34:56;11.00;11.00;8.40
29460;PMS7003;16428;47.836;35.106;2023-06-24T10:37:25;14.00;14.00;12.80
29460;PMS7003;16428;47.836;35.106;2023-06-24T10:39:56;17.60;15.80;11.80
29460;PMS7003;16428;47.836;35.106;2023-06-24T10:42:28;18.60;18.60;13.00
29460;PMS7003;16428;47.836;35.106;2023-06-24T10:47:41;12.00;12.00;11.00
29460;PMS7003;16428;47.836;35.106;2023-06-24T10:50:11;13.60;13.60;11.40
29460;PMS7003;16428;47.836;35.106;2023-06-24T10:52:44;17.00;16.40;13.20
29460;PMS7003;16428;47.836;35.106;2023-06-24T10:55:13;15.60;15.60;13.20
29460;PMS7003;16428;47.836;35.106;2023-06-24T10:57:42;15.40;15.40;12.80
29460;PMS7003;16428;47.836;35.106;2023-06-24T11:00:10;14.60;14.60;11.20
29460;PMS7003;16428;47.836;35.106;2023-06-24T11:02:41;14.80;14.80;12.20
29460;PMS7003;16428;47.836;35.106;2023-06-24T11:05:09;15.80;15.80;12.20
29460;PMS7003;16428;47.836;35.106;2023-06-24T11:07:37;16.60;15.60;12.40
29460;PMS7003;16428;47.836;35.106;2023-06-24T11:10:12;13.80;13.80;11.40
29460;PMS7003;16428;47.836;35.106;2023-06-24T11:12:42;12.20;12.20;10.00
29460;PMS7003;16428;47.836;35.106;2023-06-24T11:15:10;14.20;14.20;11.40
29460;PMS7003;16428;47.836;35.106;2023-06-24T11:17:39;17.00;15.40;12.20
29460;PMS7003;16428;47.836;35.106;2023-06-24T11:20:08;17.00;17.00;13.00
29460;PMS7003;16428;47.836;35.106;2023-06-24T11:22:36;13.40;12.80;10.80
29460;PMS7003;16428;47.836;35.106;2023-06-24T11:25:04;13.60;13.60;12.20
29460;PMS7003;16428;47.836;35.106;2023-06-24T11:27:31;14.60;14.60;11.80
29460;PMS7003;16428;47.836;35.106;2023-06-24T11:29:59;12.60;12.60;10.20
29460;PMS7003;16428;47.836;35.106;2023-06-24T11:32:38;10.20;9.80;8.80
29460;PMS7003;16428;47.836;35.106;2023-06-24T11:35:08;16.20;16.20;12.40
29460;PMS7003;16428;47.836;35.106;2023-06-24T11:37:40;14.20;14.20;10.80
29460;PMS7003;16428;47.836;35.106;2023-06-24T11:40:10;14.40;14.40;11.40
29460;PMS7003;16428;47.836;35.106;2023-06-24T11:42:39;16.40;16.40;14.00
29460;PMS7003;16428;47.836;35.106;2023-06-24T11:45:08;14.80;14.80;10.80
29460;PMS7003;16428;47.836;35.106;2023-06-24T11:47:42;17.00;16.20;15.00
29460;PMS7003;16428;47.836;35.106;2023-06-24T11:50:10;13.80;13.80;11.20
29460;PMS7003;16428;47.836;35.106;2023-06-24T11:52:41;14.80;14.80;12.80
29460;PMS7003;16428;47.836;35.106;2023-06-24T11:55:11;17.80;17.80;13.40
29460;PMS7003;16428;47.836;35.106;2023-06-24T11:57:57;14.20;14.00;12.20
29460;PMS7003;16428;47.836;35.106;2023-06-24T12:00:35;16.20;16.20;13.20
29460;PMS7003;16428;47.836;35.106;2023-06-24T12:03:06;15.20;13.60;11.20
29460;PMS7003;16428;47.836;35.106;2023-06-24T12:05:38;15.00;13.80;11.60
29460;PMS7003;16428;47.836;35.106;2023-06-24T12:08:12;11.20;11.20;10.40
29460;PMS7003;16428;47.836;35.106;2023-06-24T12:10:44;15.20;14.40;12.20
29460;PMS7003;16428;47.836;35.106;2023-06-24T12:13:11;13.60;13.60;10.00
29460;PMS7003;16428;47.836;35.106;2023-06-24T12:15:38;21.00;20.00;15.40
29460;PMS7003;16428;47.836;35.106;2023-06-24T12:18:06;15.40;15.40;12.80
29460;PMS7003;16428;47.836;35.106;2023-06-24T12:20:35;14.60;14.40;12.20
29460;PMS7003;16428;47.836;35.106;2023-06-24T12:23:07;16.40;16.40;13.40
29460;PMS7003;16428;47.836;35.106;2023-06-24T12:25:34;16.00;16.00;13.00
29460;PMS7003;16428;47.836;35.106;2023-06-24T12:28:01;17.80;17.80;13.60
29460;PMS7003;16428;47.836;35.106;2023-06-24T12:30:29;18.60;18.60;13.00
29460;PMS7003;16428;47.836;35.106;2023-06-24T12:32:56;16.40;16.40;13.20
29460;PMS7003;16428;47.836;35.106;2023-06-24T12:35:24;17.20;17.20;13.60
29460;PMS7003;16428;47.836;35.106;2023-06-24T12:37:55;15.40;15.40;12.60
29460;PMS7003;16428;47.836;35.106;2023-06-24T12:40:23;19.00;19.00;14.40
29460;PMS7003;16428;47.836;35.106;2023-06-24T12:42:50;19.60;17.40;15.80
29460;PMS7003;16428;47.836;35.106;2023-06-24T12:45:17;20.60;20.20;16.60
29460;PMS7003;16428;47.836;35.106;2023-06-24T12:47:44;22.00;21.20;17.20
29460;PMS7003;16428;47.836;35.106;2023-06-24T12:50:11;16.60;16.20;13.80
29460;PMS7003;16428;47.836;35.106;2023-06-24T12:52:42;17.20;17.20;13.40
29460;PMS7003;16428;47.836;35.106;2023-06-24T12:55:10;33.00;30.80;22.00
29460;PMS7003;16428;47.836;35.106;2023-06-24T12:57:39;17.00;17.00;14.80
29460;PMS7003;16428;47.836;35.106;2023-06-24T13:00:06;17.60;17.60;14.20
29460;PMS7003;16428;47.836;35.106;2023-06-24T13:02:35;0.00;0.00;0.00
29460;PMS7003;16428;47.836;35.106;2023-06-24T13:05:02;21.00;19.20;16.20
29460;PMS7003;16428;47.836;35.106;2023-06-24T13:07:31;20.00;20.00;15.40
29460;PMS7003;16428;47.836;35.106;2023-06-24T13:09:59;22.60;22.60;17.80
29460;PMS7003;16428;47.836;35.106;2023-06-24T13:12:28;20.60;18.00;14.00
29460;PMS7003;16428;47.836;35.106;2023-06-24T13:14:55;16.00;16.00;14.60
29460;PMS7003;16428;47.836;35.106;2023-06-24T13:17:22;16.80;16.80;13.60
29460;PMS7003;16428;47.836;35.106;2023-06-24T13:19:50;13.80;13.80;10.40
29460;PMS7003;16428;47.836;35.106;2023-06-24T13:22:18;18.80;18.80;14.20
29460;PMS7003;16428;47.836;35.106;2023-06-24T13:24:45;16.00;15.40;13.20
29460;PMS7003;16428;47.836;35.106;2023-06-24T13:27:12;15.00;15.00;12.20
29460;PMS7003;16428;47.836;35.106;2023-06-24T13:29:39;16.40;15.00;11.00
29460;PMS7003;16428;47.836;35.106;2023-06-24T13:32:07;17.40;17.00;14.00
29460;PMS7003;16428;47.836;35.106;2023-06-24T13:34:34;16.40;14.60;12.00
29460;PMS7003;16428;47.836;35.106;2023-06-24T13:37:02;13.00;13.00;10.00
29460;PMS7003;16428;47.836;35.106;2023-06-24T13:39:29;13.60;13.60;10.20
29460;PMS7003;16428;47.836;35.106;2023-06-24T13:41:56;13.60;13.60;12.00
29460;PMS7003;16428;47.836;35.106;2023-06-24T13:44:24;12.40;12.40;10.00
29460;PMS7003;16428;47.836;35.106;2023-06-24T13:46:51;15.20;14.60;12.60
29460;PMS7003;16428;47.836;35.106;2023-06-24T13:49:20;14.00;14.00;11.20
29460;PMS7003;16428;47.836;35.106;2023-06-24T13:51:47;12.00;12.00;11.00
29460;PMS7003;16428;47.836;35.106;2023-06-24T13:54:18;13.80;13.20;11.00
29460;PMS7003;16428;47.836;35.106;2023-06-24T13:56:45;12.60;12.60;11.20
29460;PMS7003;16428;47.836;35.106;2023-06-24T13:59:13;14.00;14.00;12.20